createdAt,value
2018-06-14T00:02:51.968Z,5.00
2018-06-14T00:07:45.206Z,4.77
2018-06-14T00:12:38.464Z,4.50
2018-06-14T00:17:31.789Z,4.77
2018-06-14T00:22:25.018Z,4.85
2018-06-14T00:27:18.300Z,4.30
2018-06-14T00:32:11.775Z,5.15
2018-06-14T00:37:05.046Z,5.13
2018-06-14T00:41:58.296Z,5.67
2018-06-14T00:46:51.551Z,5.70
2018-06-14T00:51:44.778Z,5.67
2018-06-14T00:56:54.973Z,5.83
2018-06-14T01:01:48.629Z,9.53
2018-06-14T01:06:41.898Z,8.53
2018-06-14T01:11:35.153Z,6.50
2018-06-14T01:16:28.418Z,5.53
2018-06-14T01:21:21.677Z,6.08
2018-06-14T01:26:15.716Z,5.90
2018-06-14T01:31:08.969Z,5.77
2018-06-14T01:36:02.181Z,5.25
2018-06-14T01:40:55.438Z,5.90
2018-06-14T01:45:48.902Z,5.80
2018-06-14T01:50:42.159Z,5.40
2018-06-14T01:55:35.408Z,5.65
2018-06-14T02:00:28.842Z,6.13
2018-06-14T02:05:22.166Z,5.87
2018-06-14T02:10:15.408Z,5.87
2018-06-14T02:15:08.668Z,6.07
2018-06-14T02:20:01.940Z,5.10
2018-06-14T02:24:55.156Z,4.97
2018-06-14T02:29:48.387Z,4.47
2018-06-14T02:34:41.671Z,4.93
2018-06-14T02:39:34.955Z,6.08
2018-06-14T02:44:28.278Z,5.17
2018-06-14T02:49:22.479Z,5.23
2018-06-14T02:54:15.754Z,5.73
2018-06-14T02:59:08.995Z,5.90
2018-06-14T03:04:02.327Z,5.40
2018-06-14T03:08:55.590Z,5.67
2018-06-14T03:13:48.874Z,5.85
2018-06-14T03:18:43.316Z,5.90
2018-06-14T03:23:36.582Z,5.87
2018-06-14T03:28:29.874Z,6.50
2018-06-14T03:33:23.384Z,6.23
2018-06-14T03:38:16.714Z,6.17
2018-06-14T03:43:10.025Z,6.30
2018-06-14T03:48:03.283Z,5.85
2018-06-14T03:52:56.486Z,5.77
2018-06-14T03:57:49.716Z,5.92
2018-06-14T04:02:42.933Z,5.73
2018-06-14T04:07:36.149Z,5.92
2018-06-14T04:12:29.428Z,6.10
2018-06-14T04:17:22.654Z,5.87
2018-06-14T04:22:15.923Z,5.80
2018-06-14T04:27:09.156Z,5.83
2018-06-14T04:32:02.400Z,5.80
2018-06-14T04:36:55.618Z,5.75
2018-06-14T04:41:48.864Z,5.30
2018-06-14T04:46:42.113Z,5.90
2018-06-14T04:51:39.880Z,5.80
2018-06-14T04:56:33.172Z,4.53
2018-06-14T05:01:26.428Z,4.50
2018-06-14T05:06:19.721Z,4.33
2018-06-14T05:11:12.984Z,4.85
2018-06-14T05:16:06.239Z,4.33
2018-06-14T05:20:59.490Z,4.10
2018-06-14T05:25:52.728Z,4.60
2018-06-14T05:30:46.001Z,4.45
2018-06-14T05:35:39.246Z,4.63
2018-06-14T05:40:32.516Z,4.10
2018-06-14T05:45:25.805Z,4.50
2018-06-14T05:50:19.076Z,4.53
2018-06-14T05:55:12.379Z,4.70
2018-06-14T06:00:09.783Z,4.70
2018-06-14T06:05:03.091Z,4.67
2018-06-14T06:09:56.335Z,4.25
2018-06-14T06:14:49.586Z,4.20
2018-06-14T06:19:42.864Z,4.58
2018-06-14T06:24:36.109Z,5.27
2018-06-14T06:29:29.476Z,4.53
2018-06-14T06:34:22.712Z,4.80
2018-06-14T06:39:15.946Z,4.28
2018-06-14T06:44:09.508Z,4.70
2018-06-14T06:49:02.828Z,4.80
2018-06-14T06:53:56.068Z,5.03
2018-06-14T06:58:49.445Z,4.97
2018-06-14T07:03:42.679Z,5.28
2018-06-14T07:08:35.942Z,4.83
2018-06-14T07:13:29.377Z,4.75
2018-06-14T07:18:22.695Z,5.03
2018-06-14T07:23:15.947Z,5.23
2018-06-14T07:28:09.196Z,4.70
2018-06-14T07:33:02.847Z,6.30
2018-06-14T07:37:56.436Z,5.83
2018-06-14T07:42:49.646Z,5.73
2018-06-14T07:47:42.896Z,5.07
2018-06-14T07:52:36.146Z,4.67
2018-06-14T07:57:29.415Z,3.87
2018-06-14T08:02:22.683Z,4.07
2018-06-14T08:07:16.098Z,4.35
2018-06-14T08:12:09.436Z,4.17
2018-06-14T08:17:02.734Z,4.17
2018-06-14T08:21:55.963Z,3.97
2018-06-14T08:26:49.228Z,3.27
2018-06-14T08:31:42.665Z,3.87
2018-06-14T08:36:35.930Z,4.00
2018-06-14T08:41:29.226Z,4.03
2018-06-14T08:46:22.502Z,4.20
2018-06-14T08:51:15.792Z,4.50
2018-06-14T08:56:09.073Z,3.65
2018-06-14T09:01:02.336Z,3.50
2018-06-14T09:05:55.660Z,3.47
2018-06-14T09:10:48.900Z,3.23
2018-06-14T09:15:42.259Z,3.27
2018-06-14T09:20:37.102Z,3.67
2018-06-14T09:25:30.483Z,3.53
2018-06-14T09:30:23.759Z,3.17
2018-06-14T09:35:17.054Z,3.30
2018-06-14T09:40:10.382Z,3.13
2018-06-14T09:45:03.888Z,3.50
2018-06-14T09:49:57.172Z,3.00
2018-06-14T09:54:50.479Z,3.80
2018-06-14T09:59:43.780Z,2.40
2018-06-14T10:04:37.062Z,2.50
2018-06-14T10:09:30.432Z,2.57
2018-06-14T10:14:23.696Z,2.90
2018-06-14T10:19:17.002Z,2.85
2018-06-14T10:24:10.289Z,2.90
2018-06-14T10:29:03.521Z,2.60
2018-06-14T10:33:56.894Z,2.70
2018-06-14T10:38:50.500Z,2.60
2018-06-14T10:43:43.748Z,2.65
2018-06-14T10:48:37.359Z,2.37
2018-06-14T10:53:30.656Z,2.63
2018-06-14T10:58:23.920Z,2.85
2018-06-14T11:03:17.253Z,2.20
2018-06-14T11:08:10.502Z,3.60
2018-06-14T11:13:03.786Z,2.73
2018-06-14T11:17:57.149Z,2.40
2018-06-14T11:22:50.414Z,2.70
2018-06-14T11:27:43.697Z,2.70
2018-06-14T11:32:36.985Z,2.90
2018-06-14T11:37:30.318Z,2.75
2018-06-14T11:42:23.567Z,2.90
2018-06-14T11:47:16.837Z,2.98
2018-06-14T11:52:10.124Z,2.80
2018-06-14T11:57:03.438Z,2.83
2018-06-14T12:01:57.001Z,2.80
2018-06-14T12:06:50.597Z,2.40
2018-06-14T12:11:43.868Z,2.30
2018-06-14T12:16:37.126Z,1.87
2018-06-14T12:21:30.451Z,2.57
2018-06-14T12:26:23.663Z,2.60
2018-06-14T12:31:16.942Z,2.17
2018-06-14T12:36:10.218Z,2.02
2018-06-14T12:41:03.484Z,3.03
2018-06-14T12:45:56.848Z,3.05
2018-06-14T12:50:50.144Z,2.53
2018-06-14T12:55:43.496Z,3.05
2018-06-14T13:00:36.748Z,2.20
2018-06-14T13:05:30.043Z,2.17
2018-06-14T13:10:23.346Z,2.13
2018-06-14T13:15:16.681Z,1.97
2018-06-14T13:20:09.977Z,2.20
2018-06-14T13:25:03.241Z,2.20
2018-06-14T13:29:56.598Z,1.97
2018-06-14T13:34:49.894Z,2.07
2018-06-14T13:39:43.152Z,1.80
2018-06-14T13:44:36.482Z,1.70
2018-06-14T13:49:29.831Z,2.10
2018-06-14T13:54:23.126Z,2.00
2018-06-14T13:59:16.395Z,1.90
2018-06-14T14:04:09.674Z,2.00
2018-06-14T14:09:03.288Z,2.05
2018-06-14T14:13:56.541Z,2.50
2018-06-14T14:18:49.892Z,2.30
2018-06-14T14:23:43.244Z,2.50
2018-06-14T14:28:36.563Z,2.20
2018-06-14T14:33:29.831Z,2.25
2018-06-14T14:38:23.570Z,2.20
2018-06-14T14:43:16.839Z,2.17
2018-06-14T14:48:10.432Z,2.20
2018-06-14T14:53:03.823Z,2.70
2018-06-14T14:57:57.149Z,2.05
2018-06-14T15:02:50.400Z,2.23
2018-06-14T15:07:43.650Z,2.23
2018-06-14T15:12:36.952Z,2.53
2018-06-14T15:17:30.307Z,2.67
2018-06-14T15:22:23.586Z,2.60
2018-06-14T15:27:16.867Z,2.87
2018-06-14T15:32:10.144Z,2.67
2018-06-14T15:37:03.433Z,2.77
2018-06-14T15:41:56.710Z,3.40
2018-06-14T15:46:49.974Z,3.10
2018-06-14T15:51:43.291Z,3.40
2018-06-14T15:56:40.443Z,3.80
2018-06-14T16:01:33.718Z,5.13
2018-06-14T16:06:26.984Z,5.10
2018-06-14T16:11:20.271Z,4.93
2018-06-14T16:16:13.649Z,4.80
2018-06-14T16:21:06.945Z,5.50
2018-06-14T16:26:00.190Z,5.25
2018-06-14T16:30:53.502Z,5.40
2018-06-14T16:35:46.889Z,5.55
2018-06-14T16:40:40.153Z,5.67
2018-06-14T16:45:33.467Z,4.90
2018-06-14T16:50:26.749Z,4.90
2018-06-14T16:55:20.167Z,4.93
2018-06-14T17:00:13.479Z,5.27
2018-06-14T17:05:06.817Z,5.17
2018-06-14T17:10:00.680Z,5.20
2018-06-14T17:14:53.944Z,5.63
2018-06-14T17:19:47.205Z,4.63
2018-06-14T17:24:40.479Z,5.50
2018-06-14T17:29:33.925Z,5.97
2018-06-14T17:34:28.110Z,5.73
2018-06-14T17:39:22.014Z,5.00
2018-06-14T17:44:15.298Z,5.70
2018-06-14T17:49:08.598Z,5.87
2018-06-14T17:54:01.879Z,6.03
2018-06-14T17:58:55.498Z,6.00
2018-06-14T18:03:48.778Z,5.30
2018-06-14T18:08:42.022Z,5.30
2018-06-14T18:13:35.288Z,6.60
2018-06-14T18:18:28.539Z,6.97
2018-06-14T18:23:21.799Z,7.00
2018-06-14T18:28:15.094Z,7.37
2018-06-14T18:33:08.446Z,7.50
2018-06-14T18:38:01.842Z,7.10
2018-06-14T18:42:55.171Z,6.83
2018-06-14T18:47:48.490Z,7.27
2018-06-14T18:52:41.769Z,7.37
2018-06-14T18:57:35.116Z,7.17
2018-06-14T19:02:28.610Z,7.67
2018-06-14T19:07:21.918Z,7.10
2018-06-14T19:12:15.271Z,7.03
2018-06-14T19:17:08.689Z,6.12
2018-06-14T19:22:02.114Z,10.60
2018-06-14T19:26:55.641Z,6.77
2018-06-14T19:31:49.303Z,7.30
2018-06-14T19:36:42.661Z,7.67
2018-06-14T19:41:36.075Z,6.80
2018-06-14T19:46:29.318Z,6.97
2018-06-14T19:51:22.633Z,6.53
2018-06-14T19:56:16.250Z,7.30
2018-06-14T20:01:09.581Z,7.17
2018-06-14T20:06:02.990Z,6.62
2018-06-14T20:10:56.272Z,7.03
2018-06-14T20:15:49.566Z,7.15
2018-06-14T20:20:42.912Z,7.83
2018-06-14T20:25:36.204Z,7.35
2018-06-14T20:30:29.496Z,7.83
2018-06-14T20:35:22.851Z,7.40
2018-06-14T20:40:16.137Z,10.20
2018-06-14T20:45:09.367Z,10.00
2018-06-14T20:50:02.735Z,10.10
2018-06-14T20:54:56.021Z,10.27
2018-06-14T20:59:49.475Z,9.23
2018-06-14T21:04:42.743Z,8.70
2018-06-14T21:09:36.072Z,8.93
2018-06-14T21:14:29.341Z,8.53
2018-06-14T21:19:22.604Z,9.60
2018-06-14T21:24:15.950Z,10.00
2018-06-14T21:29:09.408Z,9.37
2018-06-14T21:34:02.918Z,9.20
2018-06-14T21:38:56.190Z,9.70
2018-06-14T21:43:49.478Z,10.53
2018-06-14T21:48:43.152Z,9.40
2018-06-14T21:53:36.424Z,9.45
2018-06-14T21:58:29.706Z,8.97
2018-06-14T22:03:28.533Z,7.95
2018-06-14T22:08:21.780Z,7.80
2018-06-14T22:13:15.077Z,8.25
2018-06-14T22:18:08.440Z,8.10
2018-06-14T22:23:01.765Z,7.43
2018-06-14T22:27:55.041Z,7.23
2018-06-14T22:35:09.905Z,7.37
2018-06-14T22:40:03.214Z,6.80
2018-06-14T22:44:56.984Z,7.00
2018-06-14T22:49:50.280Z,6.90
2018-06-14T22:54:43.592Z,6.50
2018-06-14T22:59:36.854Z,7.97
2018-06-14T23:04:30.199Z,7.77
2018-06-14T23:10:39.295Z,8.53
2018-06-14T23:15:32.611Z,7.17
2018-06-14T23:20:26.812Z,7.85
2018-06-14T23:25:20.805Z,6.87
2018-06-14T23:30:14.717Z,6.63
2018-06-14T23:35:07.972Z,6.57
2018-06-14T23:40:01.253Z,6.35
2018-06-14T23:44:55.914Z,7.37
2018-06-14T23:49:49.179Z,7.40
2018-06-14T23:54:42.432Z,7.50
2018-06-14T23:59:35.840Z,6.87
